»·PEaware :: N6423L KTOA-KVNY

N6423L :: KTOA-KVNY

FLIGHT INFORMATION

Flight Status: Arrived
Operator: Privately registered:
United States
More flights under this callsign
Pilot: Alexander M. (19327)
Aircraft: BEECH AIRCRAFT DEBONAIR BONANZA
(BE33)
More flights by this aircraft type
Origin: KTOA Zamperini
United States
Destination: KVNY Van Nuys
United States
More flights between these airports :: More routes between these airports
Route: +
File this flight plan on PilotEdge
Remarks: CA10
Altitude:
(Current/Filed)
7,500ft
Speed:
(Current/Filed)
0kts
Departed: 17-Oct-18 04:05 PM
Arrived: 17-Oct-18 05:07 PM
Distance/Time
Traveled:
25nm/1:01
Distance/Time
To Go:
Arrived

Flight Plot

Page will automatically refresh every two minutes.


Map Options




Map Legend


Flown Route
Filed Route
Departure Airport
Arrival Airport
Navaid (VOR, NDB)
Fix

Horizontal Profiles

Position Reports

Time Latitude Longitude Heading Altitude Ground
Speed
17-Oct-18 15:47 33.803347 -118.344051 39 101ft 0kts
17-Oct-18 15:48 33.803347 -118.344051 39 101ft 0kts
17-Oct-18 15:49 33.803378 -118.343754 135 101ft 7kts
17-Oct-18 15:50 33.802945 -118.341928 127 101ft 9kts
17-Oct-18 15:51 33.800431 -118.338143 128 101ft 17kts
17-Oct-18 15:52 33.798080 -118.334598 124 101ft 8kts
17-Oct-18 15:53 33.798787 -118.333204 28 101ft 0kts
17-Oct-18 15:54 33.798787 -118.333204 28 101ft 0kts
17-Oct-18 15:55 33.798787 -118.333204 28 101ft 0kts
17-Oct-18 15:56 33.798787 -118.333204 28 101ft 0kts
17-Oct-18 15:57 33.799170 -118.333234 41 101ft 0kts
17-Oct-18 15:58 33.799170 -118.333234 41 101ft 0kts
17-Oct-18 15:59 33.799170 -118.333234 41 101ft 0kts
17-Oct-18 16:00 33.799170 -118.333234 41 101ft 0kts
17-Oct-18 16:01 33.799170 -118.333234 41 101ft 0kts
17-Oct-18 16:02 33.799170 -118.333234 41 101ft 0kts
17-Oct-18 16:03 33.799170 -118.333234 41 101ft 0kts
17-Oct-18 16:04 33.799170 -118.333234 41 101ft 0kts
17-Oct-18 16:05 33.799170 -118.333234 41 101ft 0kts
17-Oct-18 16:06 33.799170 -118.333234 41 101ft 0kts
17-Oct-18 16:07 33.804926 -118.340402 309 276ft 87kts
17-Oct-18 16:08 33.823863 -118.355797 15 1145ft 101kts
17-Oct-18 16:09 33.848728 -118.352385 357 1536ft 101kts
17-Oct-18 16:10 33.875097 -118.351802 350 1693ft 117kts
17-Oct-18 16:11 33.888172 -118.356314 315 1804ft 113kts
17-Oct-18 16:12 33.868784 -118.370040 183 1834ft 133kts
17-Oct-18 16:13 33.865909 -118.390796 348 1984ft 109kts
17-Oct-18 16:14 33.893083 -118.393601 348 2032ft 106kts
17-Oct-18 16:15 33.918814 -118.396324 348 2050ft 106kts
17-Oct-18 16:16 33.943127 -118.406366 292 2071ft 96kts
17-Oct-18 16:17 33.926093 -118.423614 182 2247ft 103kts
17-Oct-18 16:18 33.895252 -118.411852 166 1769ft 120kts
17-Oct-18 16:19 33.869988 -118.395603 150 1417ft 92kts
17-Oct-18 16:20 33.849270 -118.378087 150 1005ft 97kts
17-Oct-18 16:21 33.829426 -118.355256 130 1031ft 105kts
17-Oct-18 16:22 33.815136 -118.327955 126 1028ft 90kts
17-Oct-18 16:23 33.799095 -118.319476 221 739ft 76kts
17-Oct-18 16:24 33.802181 -118.336835 307 101ft 41kts
17-Oct-18 16:25 33.805412 -118.342228 288 101ft 2kts
17-Oct-18 16:26 33.805864 -118.345079 220 101ft 14kts
17-Oct-18 16:27 33.804681 -118.346288 198 101ft 0kts
17-Oct-18 16:28 33.804681 -118.346288 198 101ft 0kts
17-Oct-18 16:29 33.804681 -118.346288 198 101ft 0kts
17-Oct-18 16:30 33.804681 -118.346288 198 101ft 0kts
17-Oct-18 16:31 33.804651 -118.346292 165 101ft 0kts
17-Oct-18 16:32 33.803886 -118.344677 175 101ft 5kts
17-Oct-18 16:33 33.803549 -118.344658 132 101ft 0kts
17-Oct-18 16:34 33.803549 -118.344658 132 101ft 0kts
17-Oct-18 16:35 33.802784 -118.343463 123 101ft 10kts
17-Oct-18 16:36 33.802516 -118.341303 129 101ft 5kts
17-Oct-18 16:37 33.801294 -118.339423 125 101ft 13kts
17-Oct-18 16:38 33.798873 -118.335766 133 101ft 19kts
17-Oct-18 16:39 33.798734 -118.333234 11 101ft 0kts
17-Oct-18 16:40 33.798775 -118.333222 13 101ft 0kts
17-Oct-18 16:41 33.799684 -118.333028 312 101ft 8kts
17-Oct-18 16:42 33.807072 -118.344956 291 498ft 69kts
17-Oct-18 16:43 33.821560 -118.356556 333 1118ft 77kts
17-Oct-18 16:44 33.840447 -118.349768 22 1346ft 92kts
17-Oct-18 16:45 33.860165 -118.348283 342 1372ft 72kts
17-Oct-18 16:46 33.877152 -118.353929 277 1321ft 63kts
17-Oct-18 16:47 33.859669 -118.355611 167 1233ft 79kts
17-Oct-18 16:48 33.860464 -118.339070 343 1292ft 85kts
17-Oct-18 16:49 33.876078 -118.352156 257 1374ft 91kts
17-Oct-18 16:50 33.854544 -118.353573 165 1741ft 94kts
17-Oct-18 16:51 33.848682 -118.332290 17 2115ft 91kts
17-Oct-18 16:52 33.869364 -118.344540 327 2499ft 109kts
17-Oct-18 16:53 33.897715 -118.363018 321 2506ft 140kts
17-Oct-18 16:54 33.924063 -118.385171 321 2502ft 147kts
17-Oct-18 16:55 33.953708 -118.409630 321 2491ft 136kts
17-Oct-18 16:56 33.981205 -118.432567 319 2496ft 108kts
17-Oct-18 16:57 34.003080 -118.450851 318 2501ft 95kts
17-Oct-18 16:58 34.026031 -118.459393 345 2502ft 92kts
17-Oct-18 16:59 34.049103 -118.463306 346 2503ft 86kts
17-Oct-18 17:00 34.071683 -118.467044 345 2522ft 85kts
17-Oct-18 17:01 34.101340 -118.472184 349 2573ft 128kts
17-Oct-18 17:02 34.120379 -118.477806 316 2808ft 119kts
17-Oct-18 17:03 34.137974 -118.509788 307 2941ft 135kts
17-Oct-18 17:04 34.171214 -118.526027 350 2870ft 135kts
17-Oct-18 17:05 34.206103 -118.525895 4 2331ft 114kts
17-Oct-18 17:06 34.234094 -118.522896 43 2259ft 92kts
17-Oct-18 17:07 34.237141 -118.496964 126 1717ft 76kts
17-Oct-18 17:08 34.219443 -118.491305 173 896ft 68kts
17-Oct-18 17:09 34.210165 -118.490995 240 779ft 0kts
17-Oct-18 17:10 34.209001 -118.491994 92 779ft 0kts
17-Oct-18 17:11 34.209001 -118.491994 92 779ft 0kts
17-Oct-18 17:12 34.209001 -118.491994 92 779ft 0kts
17-Oct-18 17:13 34.209001 -118.491994 92 779ft 0kts
17-Oct-18 17:14 34.209001 -118.491994 92 779ft 0kts
17-Oct-18 17:15 34.209001 -118.491994 92 779ft 0kts
17-Oct-18 17:16 34.209001 -118.491994 92 779ft 0kts
17-Oct-18 17:17 34.209001 -118.491994 92 779ft 0kts
17-Oct-18 17:18 34.209001 -118.491994 92 779ft 0kts

Navigation Log

Ident Type
1. KTOA Airport
2. KVNY Airport